sensor_id;sensor_type;location;lat;lon;timestamp;P1;durP1;ratioP1;P2;durP2;ratioP2
16484;SDS011;8353;47.856;12.344;2022-09-09T00:01:56;0.50;;;0.50;;
16484;SDS011;8353;47.856;12.344;2022-09-09T00:04:49;0.50;;;0.50;;
16484;SDS011;8353;47.856;12.344;2022-09-09T00:07:46;0.57;;;0.50;;
16484;SDS011;8353;47.856;12.344;2022-09-09T00:10:36;1.20;;;0.47;;
16484;SDS011;8353;47.856;12.344;2022-09-09T00:13:28;0.50;;;0.50;;
16484;SDS011;8353;47.856;12.344;2022-09-09T00:16:21;1.20;;;0.52;;
16484;SDS011;8353;47.856;12.344;2022-09-09T00:19:12;0.52;;;0.50;;
16484;SDS011;8353;47.856;12.344;2022-09-09T00:22:12;0.60;;;0.60;;
16484;SDS011;8353;47.856;12.344;2022-09-09T00:25:04;1.33;;;0.85;;
16484;SDS011;8353;47.856;12.344;2022-09-09T00:27:58;1.20;;;0.50;;
16484;SDS011;8353;47.856;12.344;2022-09-09T00:30:46;0.60;;;0.60;;
16484;SDS011;8353;47.856;12.344;2022-09-09T00:33:34;3.35;;;0.93;;
16484;SDS011;8353;47.856;12.344;2022-09-09T00:36:21;0.52;;;0.52;;
16484;SDS011;8353;47.856;12.344;2022-09-09T00:39:13;1.15;;;0.63;;
16484;SDS011;8353;47.856;12.344;2022-09-09T00:42:09;0.68;;;0.55;;
16484;SDS011;8353;47.856;12.344;2022-09-09T00:45:01;1.83;;;0.80;;
16484;SDS011;8353;47.856;12.344;2022-09-09T00:48:00;1.17;;;0.50;;
16484;SDS011;8353;47.856;12.344;2022-09-09T00:50:53;1.42;;;0.73;;
16484;SDS011;8353;47.856;12.344;2022-09-09T00:53:55;0.40;;;0.40;;
16484;SDS011;8353;47.856;12.344;2022-09-09T00:57:00;0.60;;;0.60;;
16484;SDS011;8353;47.856;12.344;2022-09-09T01:00:02;2.33;;;0.70;;
16484;SDS011;8353;47.856;12.344;2022-09-09T01:03:20;0.60;;;0.60;;
16484;SDS011;8353;47.856;12.344;2022-09-09T01:06:13;1.05;;;0.57;;
16484;SDS011;8353;47.856;12.344;2022-09-09T01:09:08;0.50;;;0.50;;
16484;SDS011;8353;47.856;12.344;2022-09-09T01:12:01;3.20;;;0.70;;
16484;SDS011;8353;47.856;12.344;2022-09-09T01:14:55;0.68;;;0.50;;
16484;SDS011;8353;47.856;12.344;2022-09-09T01:17:53;0.82;;;0.47;;
16484;SDS011;8353;47.856;12.344;2022-09-09T01:20:49;1.27;;;0.60;;
16484;SDS011;8353;47.856;12.344;2022-09-09T01:23:59;0.60;;;0.60;;
16484;SDS011;8353;47.856;12.344;2022-09-09T01:27:01;1.00;;;0.60;;
16484;SDS011;8353;47.856;12.344;2022-09-09T01:29:50;0.50;;;0.50;;
16484;SDS011;8353;47.856;12.344;2022-09-09T01:32:38;1.35;;;0.70;;
16484;SDS011;8353;47.856;12.344;2022-09-09T01:35:37;0.80;;;0.50;;
16484;SDS011;8353;47.856;12.344;2022-09-09T01:38:30;0.50;;;0.43;;
16484;SDS011;8353;47.856;12.344;2022-09-09T01:41:19;0.70;;;0.52;;
16484;SDS011;8353;47.856;12.344;2022-09-09T01:44:07;1.55;;;0.50;;
16484;SDS011;8353;47.856;12.344;2022-09-09T01:46:55;0.55;;;0.50;;
16484;SDS011;8353;47.856;12.344;2022-09-09T01:49:42;0.52;;;0.52;;
16484;SDS011;8353;47.856;12.344;2022-09-09T01:52:29;0.50;;;0.50;;
16484;SDS011;8353;47.856;12.344;2022-09-09T01:55:23;0.50;;;0.50;;
16484;SDS011;8353;47.856;12.344;2022-09-09T01:58:18;1.15;;;0.80;;
16484;SDS011;8353;47.856;12.344;2022-09-09T02:01:17;0.85;;;0.57;;
16484;SDS011;8353;47.856;12.344;2022-09-09T02:04:18;2.17;;;1.25;;
16484;SDS011;8353;47.856;12.344;2022-09-09T02:07:20;1.08;;;0.60;;
16484;SDS011;8353;47.856;12.344;2022-09-09T02:10:16;1.27;;;0.77;;
16484;SDS011;8353;47.856;12.344;2022-09-09T02:13:07;0.35;;;0.35;;
16484;SDS011;8353;47.856;12.344;2022-09-09T02:15:57;0.50;;;0.50;;
16484;SDS011;8353;47.856;12.344;2022-09-09T02:18:51;0.80;;;0.60;;
16484;SDS011;8353;47.856;12.344;2022-09-09T02:21:43;1.05;;;0.50;;
16484;SDS011;8353;47.856;12.344;2022-09-09T02:24:32;0.60;;;0.60;;
16484;SDS011;8353;47.856;12.344;2022-09-09T02:27:22;1.15;;;0.70;;
16484;SDS011;8353;47.856;12.344;2022-09-09T02:30:10;1.38;;;0.70;;
16484;SDS011;8353;47.856;12.344;2022-09-09T02:32:58;2.63;;;0.70;;
16484;SDS011;8353;47.856;12.344;2022-09-09T02:35:50;0.85;;;0.68;;
16484;SDS011;8353;47.856;12.344;2022-09-09T02:38:40;4.00;;;0.80;;
16484;SDS011;8353;47.856;12.344;2022-09-09T02:41:31;0.50;;;0.50;;
16484;SDS011;8353;47.856;12.344;2022-09-09T02:44:20;0.40;;;0.40;;
16484;SDS011;8353;47.856;12.344;2022-09-09T02:47:10;1.65;;;0.57;;
16484;SDS011;8353;47.856;12.344;2022-09-09T02:50:08;0.60;;;0.60;;
16484;SDS011;8353;47.856;12.344;2022-09-09T02:53:05;1.20;;;0.60;;
16484;SDS011;8353;47.856;12.344;2022-09-09T02:55:57;1.67;;;0.70;;
16484;SDS011;8353;47.856;12.344;2022-09-09T02:58:48;0.77;;;0.52;;
16484;SDS011;8353;47.856;12.344;2022-09-09T03:01:36;0.82;;;0.60;;
16484;SDS011;8353;47.856;12.344;2022-09-09T03:04:25;1.33;;;0.70;;
16484;SDS011;8353;47.856;12.344;2022-09-09T03:07:11;0.50;;;0.50;;
16484;SDS011;8353;47.856;12.344;2022-09-09T03:10:00;0.73;;;0.50;;
16484;SDS011;8353;47.856;12.344;2022-09-09T03:12:47;3.20;;;0.95;;
16484;SDS011;8353;47.856;12.344;2022-09-09T03:15:34;0.93;;;0.50;;
16484;SDS011;8353;47.856;12.344;2022-09-09T03:18:21;0.50;;;0.50;;
16484;SDS011;8353;47.856;12.344;2022-09-09T03:21:08;0.60;;;0.45;;
16484;SDS011;8353;47.856;12.344;2022-09-09T03:23:54;0.60;;;0.60;;
16484;SDS011;8353;47.856;12.344;2022-09-09T03:26:43;2.53;;;0.77;;
16484;SDS011;8353;47.856;12.344;2022-09-09T03:29:30;1.45;;;0.60;;
16484;SDS011;8353;47.856;12.344;2022-09-09T03:32:18;0.50;;;0.50;;
16484;SDS011;8353;47.856;12.344;2022-09-09T03:35:07;1.50;;;0.90;;
16484;SDS011;8353;47.856;12.344;2022-09-09T03:37:54;2.00;;;1.00;;
16484;SDS011;8353;47.856;12.344;2022-09-09T03:40:47;0.63;;;0.60;;
16484;SDS011;8353;47.856;12.344;2022-09-09T03:43:36;0.75;;;0.50;;
16484;SDS011;8353;47.856;12.344;2022-09-09T03:46:24;1.15;;;0.70;;
16484;SDS011;8353;47.856;12.344;2022-09-09T03:49:11;1.25;;;0.82;;
16484;SDS011;8353;47.856;12.344;2022-09-09T03:51:58;0.68;;;0.65;;
16484;SDS011;8353;47.856;12.344;2022-09-09T03:54:46;0.60;;;0.60;;
16484;SDS011;8353;47.856;12.344;2022-09-09T03:57:33;0.50;;;0.50;;
16484;SDS011;8353;47.856;12.344;2022-09-09T04:00:22;1.52;;;0.70;;
16484;SDS011;8353;47.856;12.344;2022-09-09T04:03:09;0.55;;;0.45;;
16484;SDS011;8353;47.856;12.344;2022-09-09T04:05:58;0.50;;;0.40;;
16484;SDS011;8353;47.856;12.344;2022-09-09T04:08:47;1.48;;;0.60;;
16484;SDS011;8353;47.856;12.344;2022-09-09T04:11:34;0.90;;;0.50;;
16484;SDS011;8353;47.856;12.344;2022-09-09T04:14:21;1.35;;;0.50;;
16484;SDS011;8353;47.856;12.344;2022-09-09T04:17:12;1.17;;;0.70;;
16484;SDS011;8353;47.856;12.344;2022-09-09T04:19:59;0.60;;;0.52;;
16484;SDS011;8353;47.856;12.344;2022-09-09T04:22:46;1.20;;;0.50;;
16484;SDS011;8353;47.856;12.344;2022-09-09T04:25:33;0.50;;;0.50;;
16484;SDS011;8353;47.856;12.344;2022-09-09T04:28:20;2.55;;;0.70;;
16484;SDS011;8353;47.856;12.344;2022-09-09T04:31:09;0.95;;;0.60;;
16484;SDS011;8353;47.856;12.344;2022-09-09T04:34:01;1.85;;;1.08;;
16484;SDS011;8353;47.856;12.344;2022-09-09T04:36:50;0.80;;;0.57;;
16484;SDS011;8353;47.856;12.344;2022-09-09T04:39:37;0.50;;;0.50;;
16484;SDS011;8353;47.856;12.344;2022-09-09T04:42:24;1.58;;;0.77;;
16484;SDS011;8353;47.856;12.344;2022-09-09T04:45:13;0.60;;;0.60;;
16484;SDS011;8353;47.856;12.344;2022-09-09T04:48:01;0.68;;;0.68;;
16484;SDS011;8353;47.856;12.344;2022-09-09T04:50:56;0.80;;;0.80;;
16484;SDS011;8353;47.856;12.344;2022-09-09T04:53:43;1.20;;;0.75;;
16484;SDS011;8353;47.856;12.344;2022-09-09T04:56:31;1.67;;;1.00;;
16484;SDS011;8353;47.856;12.344;2022-09-09T04:59:18;0.60;;;0.40;;
16484;SDS011;8353;47.856;12.344;2022-09-09T05:02:05;4.90;;;1.88;;
16484;SDS011;8353;47.856;12.344;2022-09-09T05:04:52;2.25;;;1.00;;
16484;SDS011;8353;47.856;12.344;2022-09-09T05:07:40;2.85;;;2.10;;
16484;SDS011;8353;47.856;12.344;2022-09-09T05:10:28;1.67;;;1.40;;
16484;SDS011;8353;47.856;12.344;2022-09-09T05:13:15;1.23;;;0.90;;
16484;SDS011;8353;47.856;12.344;2022-09-09T05:16:02;1.35;;;1.02;;
16484;SDS011;8353;47.856;12.344;2022-09-09T05:18:49;2.15;;;1.42;;
16484;SDS011;8353;47.856;12.344;2022-09-09T05:21:36;1.90;;;1.63;;
16484;SDS011;8353;47.856;12.344;2022-09-09T05:24:24;3.00;;;2.30;;
16484;SDS011;8353;47.856;12.344;2022-09-09T05:27:11;4.93;;;3.50;;
16484;SDS011;8353;47.856;12.344;2022-09-09T05:29:58;1.60;;;1.50;;
16484;SDS011;8353;47.856;12.344;2022-09-09T05:32:45;2.47;;;1.60;;
16484;SDS011;8353;47.856;12.344;2022-09-09T05:35:33;2.38;;;1.60;;
16484;SDS011;8353;47.856;12.344;2022-09-09T05:38:20;2.42;;;1.63;;
16484;SDS011;8353;47.856;12.344;2022-09-09T05:41:10;3.60;;;2.70;;
16484;SDS011;8353;47.856;12.344;2022-09-09T05:44:00;2.00;;;1.77;;
16484;SDS011;8353;47.856;12.344;2022-09-09T05:46:48;2.10;;;1.83;;
16484;SDS011;8353;47.856;12.344;2022-09-09T05:49:35;2.53;;;2.10;;
16484;SDS011;8353;47.856;12.344;2022-09-09T05:52:22;1.95;;;1.50;;
16484;SDS011;8353;47.856;12.344;2022-09-09T05:55:10;2.88;;;2.03;;
16484;SDS011;8353;47.856;12.344;2022-09-09T05:57:59;1.48;;;1.13;;
16484;SDS011;8353;47.856;12.344;2022-09-09T06:00:48;1.80;;;1.10;;
16484;SDS011;8353;47.856;12.344;2022-09-09T06:03:53;1.30;;;1.10;;
16484;SDS011;8353;47.856;12.344;2022-09-09T06:06:41;1.65;;;1.30;;
16484;SDS011;8353;47.856;12.344;2022-09-09T06:09:28;1.30;;;1.20;;
16484;SDS011;8353;47.856;12.344;2022-09-09T06:12:15;1.33;;;1.05;;
16484;SDS011;8353;47.856;12.344;2022-09-09T06:15:04;1.08;;;0.88;;
16484;SDS011;8353;47.856;12.344;2022-09-09T06:17:53;1.30;;;1.20;;
16484;SDS011;8353;47.856;12.344;2022-09-09T06:20:41;1.13;;;1.02;;
16484;SDS011;8353;47.856;12.344;2022-09-09T06:23:28;1.52;;;1.00;;
16484;SDS011;8353;47.856;12.344;2022-09-09T06:26:15;1.30;;;0.80;;
16484;SDS011;8353;47.856;12.344;2022-09-09T06:29:04;1.05;;;0.90;;
16484;SDS011;8353;47.856;12.344;2022-09-09T06:31:52;1.65;;;0.85;;
16484;SDS011;8353;47.856;12.344;2022-09-09T06:34:39;1.02;;;0.80;;
16484;SDS011;8353;47.856;12.344;2022-09-09T06:37:26;1.63;;;0.80;;
16484;SDS011;8353;47.856;12.344;2022-09-09T06:40:13;1.30;;;1.00;;
16484;SDS011;8353;47.856;12.344;2022-09-09T06:43:00;1.55;;;0.75;;
16484;SDS011;8353;47.856;12.344;2022-09-09T06:45:52;1.52;;;0.80;;
16484;SDS011;8353;47.856;12.344;2022-09-09T06:48:42;1.45;;;0.77;;
16484;SDS011;8353;47.856;12.344;2022-09-09T06:51:31;1.42;;;0.80;;
16484;SDS011;8353;47.856;12.344;2022-09-09T06:54:19;1.98;;;1.08;;
16484;SDS011;8353;47.856;12.344;2022-09-09T06:57:08;0.93;;;0.77;;
16484;SDS011;8353;47.856;12.344;2022-09-09T06:59:55;1.95;;;0.82;;
16484;SDS011;8353;47.856;12.344;2022-09-09T07:02:42;0.85;;;0.68;;
16484;SDS011;8353;47.856;12.344;2022-09-09T07:05:31;2.20;;;0.90;;
16484;SDS011;8353;47.856;12.344;2022-09-09T07:08:18;1.73;;;0.88;;
16484;SDS011;8353;47.856;12.344;2022-09-09T07:11:05;2.05;;;0.77;;
16484;SDS011;8353;47.856;12.344;2022-09-09T07:13:54;2.03;;;1.13;;
16484;SDS011;8353;47.856;12.344;2022-09-09T07:16:42;1.30;;;0.90;;
16484;SDS011;8353;47.856;12.344;2022-09-09T07:19:29;1.52;;;0.75;;
16484;SDS011;8353;47.856;12.344;2022-09-09T07:22:18;1.92;;;0.88;;
16484;SDS011;8353;47.856;12.344;2022-09-09T07:25:05;1.67;;;0.70;;
16484;SDS011;8353;47.856;12.344;2022-09-09T07:27:53;0.95;;;0.70;;
16484;SDS011;8353;47.856;12.344;2022-09-09T07:30:40;0.63;;;0.63;;
16484;SDS011;8353;47.856;12.344;2022-09-09T07:33:27;1.15;;;0.80;;
16484;SDS011;8353;47.856;12.344;2022-09-09T07:36:16;0.85;;;0.55;;
16484;SDS011;8353;47.856;12.344;2022-09-09T07:39:08;0.50;;;0.40;;
16484;SDS011;8353;47.856;12.344;2022-09-09T07:41:58;0.60;;;0.60;;
16484;SDS011;8353;47.856;12.344;2022-09-09T07:44:44;0.50;;;0.50;;
16484;SDS011;8353;47.856;12.344;2022-09-09T07:47:31;0.70;;;0.70;;
16484;SDS011;8353;47.856;12.344;2022-09-09T07:50:18;1.15;;;0.70;;
16484;SDS011;8353;47.856;12.344;2022-09-09T07:53:05;0.85;;;0.55;;
16484;SDS011;8353;47.856;12.344;2022-09-09T07:55:53;0.70;;;0.40;;
16484;SDS011;8353;47.856;12.344;2022-09-09T07:58:40;0.63;;;0.60;;
16484;SDS011;8353;47.856;12.344;2022-09-09T08:01:29;0.70;;;0.70;;
16484;SDS011;8353;47.856;12.344;2022-09-09T08:04:18;1.15;;;0.60;;
16484;SDS011;8353;47.856;12.344;2022-09-09T08:07:05;0.63;;;0.63;;
16484;SDS011;8353;47.856;12.344;2022-09-09T08:09:52;0.77;;;0.68;;
16484;SDS011;8353;47.856;12.344;2022-09-09T08:12:40;1.40;;;0.70;;
16484;SDS011;8353;47.856;12.344;2022-09-09T08:15:27;0.63;;;0.60;;
16484;SDS011;8353;47.856;12.344;2022-09-09T08:18:16;3.22;;;0.70;;
16484;SDS011;8353;47.856;12.344;2022-09-09T08:21:06;0.95;;;0.75;;
16484;SDS011;8353;47.856;12.344;2022-09-09T08:23:57;2.58;;;0.90;;
16484;SDS011;8353;47.856;12.344;2022-09-09T08:26:46;1.15;;;0.80;;
16484;SDS011;8353;47.856;12.344;2022-09-09T08:29:35;1.13;;;0.77;;
16484;SDS011;8353;47.856;12.344;2022-09-09T08:32:23;2.70;;;1.30;;
16484;SDS011;8353;47.856;12.344;2022-09-09T08:35:09;1.15;;;0.75;;
16484;SDS011;8353;47.856;12.344;2022-09-09T08:37:56;2.63;;;1.30;;
16484;SDS011;8353;47.856;12.344;2022-09-09T08:40:43;1.77;;;0.55;;
16484;SDS011;8353;47.856;12.344;2022-09-09T08:43:36;1.25;;;0.80;;
16484;SDS011;8353;47.856;12.344;2022-09-09T08:46:25;1.60;;;0.82;;
16484;SDS011;8353;47.856;12.344;2022-09-09T08:49:24;1.25;;;1.00;;
16484;SDS011;8353;47.856;12.344;2022-09-09T08:52:36;1.45;;;0.70;;
16484;SDS011;8353;47.856;12.344;2022-09-09T08:55:29;1.67;;;1.10;;
16484;SDS011;8353;47.856;12.344;2022-09-09T08:58:24;0.57;;;0.50;;
16484;SDS011;8353;47.856;12.344;2022-09-09T09:01:21;1.10;;;0.70;;
16484;SDS011;8353;47.856;12.344;2022-09-09T09:04:29;2.72;;;1.08;;
16484;SDS011;8353;47.856;12.344;2022-09-09T09:07:28;1.80;;;0.98;;
16484;SDS011;8353;47.856;12.344;2022-09-09T09:10:25;1.63;;;0.93;;
16484;SDS011;8353;47.856;12.344;2022-09-09T09:13:20;1.23;;;1.00;;
16484;SDS011;8353;47.856;12.344;2022-09-09T09:16:14;1.15;;;0.73;;
16484;SDS011;8353;47.856;12.344;2022-09-09T09:19:10;2.17;;;0.90;;
16484;SDS011;8353;47.856;12.344;2022-09-09T09:22:02;2.47;;;1.05;;
16484;SDS011;8353;47.856;12.344;2022-09-09T09:24:59;2.28;;;1.08;;
16484;SDS011;8353;47.856;12.344;2022-09-09T09:27:52;1.50;;;1.10;;
16484;SDS011;8353;47.856;12.344;2022-09-09T09:30:47;1.83;;;1.08;;
16484;SDS011;8353;47.856;12.344;2022-09-09T09:33:41;3.00;;;1.10;;
16484;SDS011;8353;47.856;12.344;2022-09-09T09:36:37;3.90;;;1.13;;
16484;SDS011;8353;47.856;12.344;2022-09-09T09:39:28;1.27;;;1.13;;
16484;SDS011;8353;47.856;12.344;2022-09-09T09:42:16;2.83;;;1.40;;
16484;SDS011;8353;47.856;12.344;2022-09-09T09:45:07;1.45;;;1.10;;
16484;SDS011;8353;47.856;12.344;2022-09-09T09:48:02;1.77;;;1.00;;
16484;SDS011;8353;47.856;12.344;2022-09-09T09:50:51;1.38;;;1.27;;
16484;SDS011;8353;47.856;12.344;2022-09-09T09:53:41;2.50;;;1.45;;
16484;SDS011;8353;47.856;12.344;2022-09-09T09:56:29;2.38;;;1.10;;
16484;SDS011;8353;47.856;12.344;2022-09-09T09:59:21;2.92;;;1.65;;
16484;SDS011;8353;47.856;12.344;2022-09-09T10:02:20;1.50;;;1.23;;
16484;SDS011;8353;47.856;12.344;2022-09-09T10:05:12;1.48;;;1.00;;
16484;SDS011;8353;47.856;12.344;2022-09-09T10:08:08;1.83;;;1.20;;
16484;SDS011;8353;47.856;12.344;2022-09-09T10:11:02;1.58;;;1.30;;
16484;SDS011;8353;47.856;12.344;2022-09-09T10:14:00;2.15;;;1.20;;
16484;SDS011;8353;47.856;12.344;2022-09-09T10:16:58;3.45;;;1.73;;
16484;SDS011;8353;47.856;12.344;2022-09-09T10:19:56;1.88;;;0.80;;
16484;SDS011;8353;47.856;12.344;2022-09-09T10:22:58;3.70;;;1.10;;
16484;SDS011;8353;47.856;12.344;2022-09-09T10:26:04;4.72;;;1.25;;
16484;SDS011;8353;47.856;12.344;2022-09-09T10:29:13;3.10;;;0.90;;
16484;SDS011;8353;47.856;12.344;2022-09-09T10:32:30;1.02;;;0.85;;
16484;SDS011;8353;47.856;12.344;2022-09-09T10:35:28;4.80;;;1.13;;
16484;SDS011;8353;47.856;12.344;2022-09-09T10:38:18;3.28;;;1.02;;
16484;SDS011;8353;47.856;12.344;2022-09-09T10:41:17;1.00;;;0.90;;
16484;SDS011;8353;47.856;12.344;2022-09-09T10:44:11;2.28;;;1.00;;
16484;SDS011;8353;47.856;12.344;2022-09-09T10:47:23;2.80;;;1.10;;
16484;SDS011;8353;47.856;12.344;2022-09-09T10:50:37;1.30;;;0.70;;
16484;SDS011;8353;47.856;12.344;2022-09-09T10:53:36;0.65;;;0.65;;
16484;SDS011;8353;47.856;12.344;2022-09-09T10:56:33;2.00;;;0.68;;
16484;SDS011;8353;47.856;12.344;2022-09-09T10:59:22;1.90;;;1.05;;
16484;SDS011;8353;47.856;12.344;2022-09-09T11:02:13;1.98;;;0.82;;
16484;SDS011;8353;47.856;12.344;2022-09-09T11:05:05;4.05;;;1.20;;
16484;SDS011;8353;47.856;12.344;2022-09-09T11:07:57;1.58;;;0.80;;
16484;SDS011;8353;47.856;12.344;2022-09-09T11:10:48;1.40;;;1.02;;
16484;SDS011;8353;47.856;12.344;2022-09-09T11:13:42;0.77;;;0.77;;
16484;SDS011;8353;47.856;12.344;2022-09-09T11:16:34;1.00;;;0.60;;
16484;SDS011;8353;47.856;12.344;2022-09-09T11:19:28;4.00;;;1.02;;
16484;SDS011;8353;47.856;12.344;2022-09-09T11:22:24;1.80;;;1.02;;
16484;SDS011;8353;47.856;12.344;2022-09-09T11:25:17;0.95;;;0.70;;
16484;SDS011;8353;47.856;12.344;2022-09-09T11:28:14;0.70;;;0.70;;
16484;SDS011;8353;47.856;12.344;2022-09-09T11:31:26;2.60;;;1.60;;
16484;SDS011;8353;47.856;12.344;2022-09-09T11:34:31;2.00;;;1.23;;
16484;SDS011;8353;47.856;12.344;2022-09-09T11:37:37;1.92;;;1.42;;
16484;SDS011;8353;47.856;12.344;2022-09-09T11:40:33;2.10;;;1.20;;
16484;SDS011;8353;47.856;12.344;2022-09-09T11:43:21;1.98;;;1.33;;
16484;SDS011;8353;47.856;12.344;2022-09-09T11:46:13;1.20;;;1.00;;
16484;SDS011;8353;47.856;12.344;2022-09-09T11:49:04;1.10;;;1.00;;
16484;SDS011;8353;47.856;12.344;2022-09-09T11:51:52;2.03;;;1.00;;
16484;SDS011;8353;47.856;12.344;2022-09-09T11:54:44;1.58;;;1.30;;
16484;SDS011;8353;47.856;12.344;2022-09-09T11:57:34;1.00;;;0.90;;
16484;SDS011;8353;47.856;12.344;2022-09-09T12:00:32;1.50;;;0.90;;
16484;SDS011;8353;47.856;12.344;2022-09-09T12:03:35;1.13;;;0.70;;
16484;SDS011;8353;47.856;12.344;2022-09-09T12:06:29;1.38;;;0.77;;
16484;SDS011;8353;47.856;12.344;2022-09-09T12:09:20;0.90;;;0.70;;
16484;SDS011;8353;47.856;12.344;2022-09-09T12:12:21;1.02;;;0.80;;
16484;SDS011;8353;47.856;12.344;2022-09-09T12:15:19;3.63;;;1.13;;
16484;SDS011;8353;47.856;12.344;2022-09-09T12:18:14;1.83;;;0.70;;
16484;SDS011;8353;47.856;12.344;2022-09-09T12:21:08;1.00;;;0.80;;
16484;SDS011;8353;47.856;12.344;2022-09-09T12:24:06;1.73;;;0.98;;
16484;SDS011;8353;47.856;12.344;2022-09-09T12:26:56;1.48;;;1.15;;
16484;SDS011;8353;47.856;12.344;2022-09-09T12:29:49;2.33;;;1.10;;
16484;SDS011;8353;47.856;12.344;2022-09-09T12:32:41;1.45;;;1.30;;
16484;SDS011;8353;47.856;12.344;2022-09-09T12:35:29;1.85;;;1.00;;
16484;SDS011;8353;47.856;12.344;2022-09-09T12:38:26;1.90;;;1.00;;
16484;SDS011;8353;47.856;12.344;2022-09-09T12:41:20;1.02;;;0.82;;
16484;SDS011;8353;47.856;12.344;2022-09-09T12:44:08;2.13;;;1.48;;
16484;SDS011;8353;47.856;12.344;2022-09-09T12:46:56;3.70;;;0.90;;
16484;SDS011;8353;47.856;12.344;2022-09-09T12:49:45;1.10;;;0.88;;
16484;SDS011;8353;47.856;12.344;2022-09-09T12:52:35;1.35;;;1.10;;
16484;SDS011;8353;47.856;12.344;2022-09-09T12:55:25;2.50;;;1.10;;
16484;SDS011;8353;47.856;12.344;2022-09-09T12:58:16;2.10;;;1.15;;
16484;SDS011;8353;47.856;12.344;2022-09-09T13:01:04;1.00;;;0.90;;
16484;SDS011;8353;47.856;12.344;2022-09-09T13:03:53;1.75;;;0.98;;
16484;SDS011;8353;47.856;12.344;2022-09-09T13:06:40;2.22;;;1.02;;
16484;SDS011;8353;47.856;12.344;2022-09-09T13:09:27;1.63;;;1.08;;
16484;SDS011;8353;47.856;12.344;2022-09-09T13:12:15;0.95;;;0.82;;
16484;SDS011;8353;47.856;12.344;2022-09-09T13:15:09;3.25;;;0.90;;
16484;SDS011;8353;47.856;12.344;2022-09-09T13:18:06;2.97;;;0.90;;
16484;SDS011;8353;47.856;12.344;2022-09-09T13:20:57;1.65;;;0.93;;
16484;SDS011;8353;47.856;12.344;2022-09-09T13:23:48;2.15;;;0.80;;
16484;SDS011;8353;47.856;12.344;2022-09-09T13:26:37;1.33;;;1.05;;
16484;SDS011;8353;47.856;12.344;2022-09-09T13:29:24;2.25;;;1.05;;
16484;SDS011;8353;47.856;12.344;2022-09-09T13:32:16;1.95;;;1.13;;
16484;SDS011;8353;47.856;12.344;2022-09-09T13:35:04;2.53;;;1.17;;
16484;SDS011;8353;47.856;12.344;2022-09-09T13:38:09;1.90;;;1.05;;
16484;SDS011;8353;47.856;12.344;2022-09-09T13:40:56;2.95;;;1.27;;
16484;SDS011;8353;47.856;12.344;2022-09-09T13:43:46;1.67;;;1.00;;
16484;SDS011;8353;47.856;12.344;2022-09-09T13:46:34;3.80;;;1.30;;
16484;SDS011;8353;47.856;12.344;2022-09-09T13:49:23;2.20;;;1.20;;
16484;SDS011;8353;47.856;12.344;2022-09-09T13:52:15;1.50;;;1.15;;
16484;SDS011;8353;47.856;12.344;2022-09-09T13:55:04;2.67;;;1.05;;
16484;SDS011;8353;47.856;12.344;2022-09-09T13:57:53;2.67;;;1.00;;
16484;SDS011;8353;47.856;12.344;2022-09-09T14:00:41;1.95;;;0.90;;
16484;SDS011;8353;47.856;12.344;2022-09-09T14:03:29;1.85;;;0.90;;
16484;SDS011;8353;47.856;12.344;2022-09-09T14:06:17;1.48;;;0.70;;
16484;SDS011;8353;47.856;12.344;2022-09-09T14:09:04;2.78;;;1.00;;
16484;SDS011;8353;47.856;12.344;2022-09-09T14:11:51;1.88;;;1.05;;
16484;SDS011;8353;47.856;12.344;2022-09-09T14:14:40;1.85;;;1.15;;
16484;SDS011;8353;47.856;12.344;2022-09-09T14:17:28;2.60;;;1.30;;
16484;SDS011;8353;47.856;12.344;2022-09-09T14:20:16;2.58;;;1.70;;
16484;SDS011;8353;47.856;12.344;2022-09-09T14:23:07;1.58;;;1.05;;
16484;SDS011;8353;47.856;12.344;2022-09-09T14:26:01;4.50;;;1.40;;
16484;SDS011;8353;47.856;12.344;2022-09-09T14:28:52;2.42;;;1.40;;
16484;SDS011;8353;47.856;12.344;2022-09-09T14:31:40;3.25;;;1.40;;
16484;SDS011;8353;47.856;12.344;2022-09-09T14:34:28;1.02;;;0.85;;
16484;SDS011;8353;47.856;12.344;2022-09-09T14:37:26;1.45;;;0.63;;
16484;SDS011;8353;47.856;12.344;2022-09-09T14:40:22;0.98;;;0.70;;
16484;SDS011;8353;47.856;12.344;2022-09-09T14:43:16;2.00;;;0.70;;
16484;SDS011;8353;47.856;12.344;2022-09-09T14:46:06;1.20;;;0.70;;
16484;SDS011;8353;47.856;12.344;2022-09-09T14:48:59;0.77;;;0.70;;
16484;SDS011;8353;47.856;12.344;2022-09-09T14:51:51;0.57;;;0.57;;
16484;SDS011;8353;47.856;12.344;2022-09-09T14:54:39;1.67;;;0.90;;
16484;SDS011;8353;47.856;12.344;2022-09-09T14:57:34;1.58;;;1.05;;
16484;SDS011;8353;47.856;12.344;2022-09-09T15:00:24;1.42;;;1.05;;
16484;SDS011;8353;47.856;12.344;2022-09-09T15:03:12;3.50;;;1.17;;
16484;SDS011;8353;47.856;12.344;2022-09-09T15:06:04;1.10;;;0.77;;
16484;SDS011;8353;47.856;12.344;2022-09-09T15:08:56;1.58;;;0.95;;
16484;SDS011;8353;47.856;12.344;2022-09-09T15:11:45;1.48;;;1.00;;
16484;SDS011;8353;47.856;12.344;2022-09-09T15:14:41;2.45;;;0.80;;
16484;SDS011;8353;47.856;12.344;2022-09-09T15:17:43;1.90;;;1.15;;
16484;SDS011;8353;47.856;12.344;2022-09-09T15:20:32;1.42;;;1.23;;
16484;SDS011;8353;47.856;12.344;2022-09-09T15:23:20;3.63;;;1.10;;
16484;SDS011;8353;47.856;12.344;2022-09-09T15:26:09;1.48;;;0.70;;
16484;SDS011;8353;47.856;12.344;2022-09-09T15:28:59;1.65;;;0.73;;
16484;SDS011;8353;47.856;12.344;2022-09-09T15:31:54;2.08;;;1.10;;
16484;SDS011;8353;47.856;12.344;2022-09-09T15:34:41;0.82;;;0.70;;
16484;SDS011;8353;47.856;12.344;2022-09-09T15:37:28;3.00;;;0.80;;
16484;SDS011;8353;47.856;12.344;2022-09-09T15:40:15;1.52;;;0.93;;
16484;SDS011;8353;47.856;12.344;2022-09-09T15:43:02;2.08;;;1.00;;
16484;SDS011;8353;47.856;12.344;2022-09-09T15:45:52;1.60;;;0.75;;
16484;SDS011;8353;47.856;12.344;2022-09-09T15:48:44;2.13;;;0.80;;
16484;SDS011;8353;47.856;12.344;2022-09-09T15:51:31;2.42;;;0.88;;
16484;SDS011;8353;47.856;12.344;2022-09-09T15:54:19;1.13;;;0.82;;
16484;SDS011;8353;47.856;12.344;2022-09-09T15:57:11;4.68;;;0.90;;
16484;SDS011;8353;47.856;12.344;2022-09-09T15:59:58;4.43;;;0.95;;
16484;SDS011;8353;47.856;12.344;2022-09-09T16:02:45;4.85;;;1.23;;
16484;SDS011;8353;47.856;12.344;2022-09-09T16:05:34;2.30;;;1.20;;
16484;SDS011;8353;47.856;12.344;2022-09-09T16:08:21;2.60;;;1.00;;
16484;SDS011;8353;47.856;12.344;2022-09-09T16:11:08;1.75;;;0.90;;
16484;SDS011;8353;47.856;12.344;2022-09-09T16:13:57;2.03;;;1.10;;
16484;SDS011;8353;47.856;12.344;2022-09-09T16:16:44;3.30;;;1.02;;
16484;SDS011;8353;47.856;12.344;2022-09-09T16:19:31;1.15;;;0.82;;
16484;SDS011;8353;47.856;12.344;2022-09-09T16:22:20;1.83;;;0.90;;
16484;SDS011;8353;47.856;12.344;2022-09-09T16:25:09;3.42;;;1.38;;
16484;SDS011;8353;47.856;12.344;2022-09-09T16:27:56;2.53;;;1.40;;
16484;SDS011;8353;47.856;12.344;2022-09-09T16:30:43;1.80;;;1.08;;
16484;SDS011;8353;47.856;12.344;2022-09-09T16:33:29;1.50;;;1.00;;
16484;SDS011;8353;47.856;12.344;2022-09-09T16:36:17;1.02;;;0.75;;
16484;SDS011;8353;47.856;12.344;2022-09-09T16:39:07;1.10;;;0.80;;
16484;SDS011;8353;47.856;12.344;2022-09-09T16:41:55;0.95;;;0.70;;
16484;SDS011;8353;47.856;12.344;2022-09-09T16:44:42;1.55;;;0.80;;
16484;SDS011;8353;47.856;12.344;2022-09-09T16:47:29;1.30;;;0.88;;
16484;SDS011;8353;47.856;12.344;2022-09-09T16:50:16;1.95;;;0.88;;
16484;SDS011;8353;47.856;12.344;2022-09-09T16:53:03;0.75;;;0.70;;
16484;SDS011;8353;47.856;12.344;2022-09-09T16:55:55;2.15;;;0.77;;
16484;SDS011;8353;47.856;12.344;2022-09-09T16:58:42;1.25;;;0.70;;
16484;SDS011;8353;47.856;12.344;2022-09-09T17:01:31;1.73;;;0.90;;
16484;SDS011;8353;47.856;12.344;2022-09-09T17:04:24;2.00;;;0.90;;
16484;SDS011;8353;47.856;12.344;2022-09-09T17:07:12;1.85;;;0.73;;
16484;SDS011;8353;47.856;12.344;2022-09-09T17:09:59;0.60;;;0.60;;
16484;SDS011;8353;47.856;12.344;2022-09-09T17:12:47;1.42;;;0.75;;